sensor_id;sensor_type;location;lat;lon;timestamp;temperature;humidity
76291;DHT22;65100;46.884;17.410;2022-12-29T00:00:04;3.60;76.79
76291;DHT22;65100;46.884;17.410;2022-12-29T00:02:30;3.67;76.94
76291;DHT22;65100;46.884;17.410;2022-12-29T00:04:56;3.71;77.05
76291;DHT22;65100;46.884;17.410;2022-12-29T00:07:21;3.72;77.48
76291;DHT22;65100;46.884;17.410;2022-12-29T00:09:47;3.60;77.02
76291;DHT22;65100;46.884;17.410;2022-12-29T00:12:12;3.41;77.11
76291;DHT22;65100;46.884;17.410;2022-12-29T00:14:37;3.54;77.83
76291;DHT22;65100;46.884;17.410;2022-12-29T00:17:21;3.44;76.96
76291;DHT22;65100;46.884;17.410;2022-12-29T00:19:47;3.51;77.30
76291;DHT22;65100;46.884;17.410;2022-12-29T00:22:31;3.65;77.53
76291;DHT22;65100;46.884;17.410;2022-12-29T00:25:15;3.65;77.35
76291;DHT22;65100;46.884;17.410;2022-12-29T00:27:59;3.51;77.51
76291;DHT22;65100;46.884;17.410;2022-12-29T00:30:43;3.50;77.52
76291;DHT22;65100;46.884;17.410;2022-12-29T00:33:32;3.52;77.11
76291;DHT22;65100;46.884;17.410;2022-12-29T00:38:53;3.41;77.13
76291;DHT22;65100;46.884;17.410;2022-12-29T00:41:39;3.30;77.41
76291;DHT22;65100;46.884;17.410;2022-12-29T00:44:23;3.44;77.89
76291;DHT22;65100;46.884;17.410;2022-12-29T00:46:49;3.32;77.48
76291;DHT22;65100;46.884;17.410;2022-12-29T00:49:14;3.28;78.43
76291;DHT22;65100;46.884;17.410;2022-12-29T00:52:07;3.41;77.84
76291;DHT22;65100;46.884;17.410;2022-12-29T00:54:37;3.34;77.56
76291;DHT22;65100;46.884;17.410;2022-12-29T00:57:05;3.21;78.29
76291;DHT22;65100;46.884;17.410;2022-12-29T00:59:31;3.31;78.24
76291;DHT22;65100;46.884;17.410;2022-12-29T01:01:57;3.16;78.63
76291;DHT22;65100;46.884;17.410;2022-12-29T01:04:24;3.30;78.13
76291;DHT22;65100;46.884;17.410;2022-12-29T01:06:50;3.30;78.07
76291;DHT22;65100;46.884;17.410;2022-12-29T01:09:17;3.18;78.09
76291;DHT22;65100;46.884;17.410;2022-12-29T01:12:02;3.16;78.08
76291;DHT22;65100;46.884;17.410;2022-12-29T01:14:27;3.18;78.71
76291;DHT22;65100;46.884;17.410;2022-12-29T01:16:54;3.21;78.84
76291;DHT22;65100;46.884;17.410;2022-12-29T01:19:21;3.13;78.71
76291;DHT22;65100;46.884;17.410;2022-12-29T01:21:47;3.16;79.39
76291;DHT22;65100;46.884;17.410;2022-12-29T01:24:14;3.18;79.41
76291;DHT22;65100;46.884;17.410;2022-12-29T01:26:40;3.20;78.88
76291;DHT22;65100;46.884;17.410;2022-12-29T01:29:05;3.16;78.79
76291;DHT22;65100;46.884;17.410;2022-12-29T01:31:31;3.13;78.42
76291;DHT22;65100;46.884;17.410;2022-12-29T01:33:56;3.14;78.77
76291;DHT22;65100;46.884;17.410;2022-12-29T01:36:23;3.13;78.65
76291;DHT22;65100;46.884;17.410;2022-12-29T01:38:49;3.11;78.93
76291;DHT22;65100;46.884;17.410;2022-12-29T01:41:15;3.11;79.02
76291;DHT22;65100;46.884;17.410;2022-12-29T01:43:55;3.08;78.68
76291;DHT22;65100;46.884;17.410;2022-12-29T01:49:14;3.04;79.54
76291;DHT22;65100;46.884;17.410;2022-12-29T01:51:50;3.06;79.98
76291;DHT22;65100;46.884;17.410;2022-12-29T01:56:58;3.27;79.97
76291;DHT22;65100;46.884;17.410;2022-12-29T01:59:27;3.24;79.81
76291;DHT22;65100;46.884;17.410;2022-12-29T02:01:54;3.26;80.35
76291;DHT22;65100;46.884;17.410;2022-12-29T02:04:22;3.21;79.85
76291;DHT22;65100;46.884;17.410;2022-12-29T02:06:58;3.34;79.42
76291;DHT22;65100;46.884;17.410;2022-12-29T02:09:26;3.31;79.35
76291;DHT22;65100;46.884;17.410;2022-12-29T02:11:52;3.27;79.70
76291;DHT22;65100;46.884;17.410;2022-12-29T02:14:17;3.31;79.92
76291;DHT22;65100;46.884;17.410;2022-12-29T02:25:04;3.21;79.81
76291;DHT22;65100;46.884;17.410;2022-12-29T02:27:55;3.30;80.36
76291;DHT22;65100;46.884;17.410;2022-12-29T02:35:52;3.31;78.99
76291;DHT22;65100;46.884;17.410;2022-12-29T02:38:29;3.24;78.68
76291;DHT22;65100;46.884;17.410;2022-12-29T02:41:07;3.10;79.69
76291;DHT22;65100;46.884;17.410;2022-12-29T02:44:11;3.13;80.76
76291;DHT22;65100;46.884;17.410;2022-12-29T02:46:45;3.34;80.24
76291;DHT22;65100;46.884;17.410;2022-12-29T02:52:02;3.23;80.24
76291;DHT22;65100;46.884;17.410;2022-12-29T02:54:29;3.24;80.22
76291;DHT22;65100;46.884;17.410;2022-12-29T02:59:48;3.27;80.36
76291;DHT22;65100;46.884;17.410;2022-12-29T03:16:06;3.26;79.61
76291;DHT22;65100;46.884;17.410;2022-12-29T03:18:50;3.44;79.68
76291;DHT22;65100;46.884;17.410;2022-12-29T03:24:13;3.41;79.49
76291;DHT22;65100;46.884;17.410;2022-12-29T03:26:41;3.42;79.15
76291;DHT22;65100;46.884;17.410;2022-12-29T03:29:07;3.39;79.05
76291;DHT22;65100;46.884;17.410;2022-12-29T03:31:35;3.47;78.93
76291;DHT22;65100;46.884;17.410;2022-12-29T03:34:02;3.39;79.26
76291;DHT22;65100;46.884;17.410;2022-12-29T03:36:59;3.32;79.84
76291;DHT22;65100;46.884;17.410;2022-12-29T03:39:26;3.34;80.20
76291;DHT22;65100;46.884;17.410;2022-12-29T03:41:58;3.35;80.15
76291;DHT22;65100;46.884;17.410;2022-12-29T03:44:37;3.32;80.03
76291;DHT22;65100;46.884;17.410;2022-12-29T03:47:03;3.31;80.58
76291;DHT22;65100;46.884;17.410;2022-12-29T03:49:28;3.44;79.99
76291;DHT22;65100;46.884;17.410;2022-12-29T03:51:54;3.39;79.93
76291;DHT22;65100;46.884;17.410;2022-12-29T03:54:20;3.41;79.91
76291;DHT22;65100;46.884;17.410;2022-12-29T03:56:45;3.38;80.55
76291;DHT22;65100;46.884;17.410;2022-12-29T03:59:10;3.42;79.67
76291;DHT22;65100;46.884;17.410;2022-12-29T04:01:36;3.35;79.81
76291;DHT22;65100;46.884;17.410;2022-12-29T04:04:01;3.39;78.55
76291;DHT22;65100;46.884;17.410;2022-12-29T04:06:27;3.31;79.99
76291;DHT22;65100;46.884;17.410;2022-12-29T04:08:52;3.38;79.95
76291;DHT22;65100;46.884;17.410;2022-12-29T04:11:18;3.37;80.10
76291;DHT22;65100;46.884;17.410;2022-12-29T04:13:43;3.13;80.69
76291;DHT22;65100;46.884;17.410;2022-12-29T04:16:09;3.34;80.47
76291;DHT22;65100;46.884;17.410;2022-12-29T04:18:34;3.28;80.12
76291;DHT22;65100;46.884;17.410;2022-12-29T04:21:00;3.34;80.09
76291;DHT22;65100;46.884;17.410;2022-12-29T04:23:26;3.41;79.46
76291;DHT22;65100;46.884;17.410;2022-12-29T04:25:52;3.16;78.45
76291;DHT22;65100;46.884;17.410;2022-12-29T04:28:18;2.93;77.20
76291;DHT22;65100;46.884;17.410;2022-12-29T04:30:43;2.69;77.47
76291;DHT22;65100;46.884;17.410;2022-12-29T04:33:09;2.69;79.02
76291;DHT22;65100;46.884;17.410;2022-12-29T04:35:35;2.59;78.15
76291;DHT22;65100;46.884;17.410;2022-12-29T04:38:00;2.48;78.38
76291;DHT22;65100;46.884;17.410;2022-12-29T04:40:26;2.28;78.94
76291;DHT22;65100;46.884;17.410;2022-12-29T04:42:51;2.11;79.92
76291;DHT22;65100;46.884;17.410;2022-12-29T04:45:17;1.97;81.65
76291;DHT22;65100;46.884;17.410;2022-12-29T04:47:43;2.19;82.28
76291;DHT22;65100;46.884;17.410;2022-12-29T04:50:08;2.26;79.93
76291;DHT22;65100;46.884;17.410;2022-12-29T04:52:34;2.26;79.71
76291;DHT22;65100;46.884;17.410;2022-12-29T04:54:59;2.21;80.31
76291;DHT22;65100;46.884;17.410;2022-12-29T04:57:25;2.06;80.10
76291;DHT22;65100;46.884;17.410;2022-12-29T04:59:51;2.09;82.69
76291;DHT22;65100;46.884;17.410;2022-12-29T05:02:16;2.22;83.92
76291;DHT22;65100;46.884;17.410;2022-12-29T05:04:42;2.33;81.26
76291;DHT22;65100;46.884;17.410;2022-12-29T05:07:07;2.29;80.99
76291;DHT22;65100;46.884;17.410;2022-12-29T05:09:33;2.32;81.65
76291;DHT22;65100;46.884;17.410;2022-12-29T05:11:58;2.38;83.56
76291;DHT22;65100;46.884;17.410;2022-12-29T05:14:24;2.26;82.12
76291;DHT22;65100;46.884;17.410;2022-12-29T05:16:50;2.16;82.35
76291;DHT22;65100;46.884;17.410;2022-12-29T05:19:16;2.12;82.01
76291;DHT22;65100;46.884;17.410;2022-12-29T05:21:42;2.26;82.43
76291;DHT22;65100;46.884;17.410;2022-12-29T05:24:08;2.09;81.04
76291;DHT22;65100;46.884;17.410;2022-12-29T05:26:33;2.06;80.68
76291;DHT22;65100;46.884;17.410;2022-12-29T05:28:59;2.05;80.10
76291;DHT22;65100;46.884;17.410;2022-12-29T05:31:25;1.95;78.32
76291;DHT22;65100;46.884;17.410;2022-12-29T05:33:51;1.92;78.52
76291;DHT22;65100;46.884;17.410;2022-12-29T05:36:17;1.75;79.10
76291;DHT22;65100;46.884;17.410;2022-12-29T05:38:43;1.77;77.87
76291;DHT22;65100;46.884;17.410;2022-12-29T05:41:08;1.72;76.95
76291;DHT22;65100;46.884;17.410;2022-12-29T05:43:34;1.46;77.28
76291;DHT22;65100;46.884;17.410;2022-12-29T05:45:59;1.27;78.23
76291;DHT22;65100;46.884;17.410;2022-12-29T05:48:25;1.26;79.05
76291;DHT22;65100;46.884;17.410;2022-12-29T05:50:51;1.19;80.32
76291;DHT22;65100;46.884;17.410;2022-12-29T05:53:17;1.13;80.91
76291;DHT22;65100;46.884;17.410;2022-12-29T05:55:44;1.24;81.21
76291;DHT22;65100;46.884;17.410;2022-12-29T05:58:09;1.22;82.25
76291;DHT22;65100;46.884;17.410;2022-12-29T06:00:35;1.43;82.08
76291;DHT22;65100;46.884;17.410;2022-12-29T06:03:00;1.40;80.44
76291;DHT22;65100;46.884;17.410;2022-12-29T06:05:26;1.30;79.73
76291;DHT22;65100;46.884;17.410;2022-12-29T06:07:52;1.34;83.42
76291;DHT22;65100;46.884;17.410;2022-12-29T06:10:17;1.33;81.64
76291;DHT22;65100;46.884;17.410;2022-12-29T06:12:43;1.22;80.87
76291;DHT22;65100;46.884;17.410;2022-12-29T06:15:08;1.19;82.80
76291;DHT22;65100;46.884;17.410;2022-12-29T06:17:34;1.36;81.05
76291;DHT22;65100;46.884;17.410;2022-12-29T06:20:00;1.34;82.06
76291;DHT22;65100;46.884;17.410;2022-12-29T06:22:26;1.30;82.04
76291;DHT22;65100;46.884;17.410;2022-12-29T06:24:51;1.40;81.48
76291;DHT22;65100;46.884;17.410;2022-12-29T06:27:17;1.46;81.38
76291;DHT22;65100;46.884;17.410;2022-12-29T06:29:42;1.44;80.78
76291;DHT22;65100;46.884;17.410;2022-12-29T06:32:08;1.36;79.42
76291;DHT22;65100;46.884;17.410;2022-12-29T06:34:34;1.28;79.26
76291;DHT22;65100;46.884;17.410;2022-12-29T06:36:59;1.22;81.08
76291;DHT22;65100;46.884;17.410;2022-12-29T06:39:25;1.10;81.71
76291;DHT22;65100;46.884;17.410;2022-12-29T06:41:53;1.19;85.96
76291;DHT22;65100;46.884;17.410;2022-12-29T06:44:20;1.30;86.34
76291;DHT22;65100;46.884;17.410;2022-12-29T06:46:46;1.41;84.53
76291;DHT22;65100;46.884;17.410;2022-12-29T06:49:12;1.44;81.80
76291;DHT22;65100;46.884;17.410;2022-12-29T06:51:37;1.68;78.56
76291;DHT22;65100;46.884;17.410;2022-12-29T06:54:02;1.75;77.65
76291;DHT22;65100;46.884;17.410;2022-12-29T06:56:28;1.84;77.85
76291;DHT22;65100;46.884;17.410;2022-12-29T06:58:53;1.48;78.84
76291;DHT22;65100;46.884;17.410;2022-12-29T07:01:19;1.46;81.66
76291;DHT22;65100;46.884;17.410;2022-12-29T07:03:44;1.71;79.75
76291;DHT22;65100;46.884;17.410;2022-12-29T07:06:10;1.85;78.74
76291;DHT22;65100;46.884;17.410;2022-12-29T07:08:35;2.29;76.40
76291;DHT22;65100;46.884;17.410;2022-12-29T07:11:01;2.72;73.98
76291;DHT22;65100;46.884;17.410;2022-12-29T07:13:26;2.87;74.39
76291;DHT22;65100;46.884;17.410;2022-12-29T07:15:51;3.06;75.05
76291;DHT22;65100;46.884;17.410;2022-12-29T07:18:17;3.07;73.48
76291;DHT22;65100;46.884;17.410;2022-12-29T07:20:43;2.93;73.71
76291;DHT22;65100;46.884;17.410;2022-12-29T07:23:08;3.03;74.43
76291;DHT22;65100;46.884;17.410;2022-12-29T07:25:34;3.07;74.71
76291;DHT22;65100;46.884;17.410;2022-12-29T07:28:01;3.10;75.29
76291;DHT22;65100;46.884;17.410;2022-12-29T07:30:27;3.38;75.03
76291;DHT22;65100;46.884;17.410;2022-12-29T07:32:52;3.32;74.50
76291;DHT22;65100;46.884;17.410;2022-12-29T07:35:18;3.54;74.52
76291;DHT22;65100;46.884;17.410;2022-12-29T07:37:43;3.79;74.78
76291;DHT22;65100;46.884;17.410;2022-12-29T07:40:10;3.60;75.52
76291;DHT22;65100;46.884;17.410;2022-12-29T07:42:35;3.62;76.70
76291;DHT22;65100;46.884;17.410;2022-12-29T07:45:01;3.50;76.68
76291;DHT22;65100;46.884;17.410;2022-12-29T07:47:26;3.47;77.70
76291;DHT22;65100;46.884;17.410;2022-12-29T07:49:52;3.62;78.02
76291;DHT22;65100;46.884;17.410;2022-12-29T07:52:17;3.55;78.85
76291;DHT22;65100;46.884;17.410;2022-12-29T07:54:43;3.78;78.59
76291;DHT22;65100;46.884;17.410;2022-12-29T07:57:08;3.74;79.11
76291;DHT22;65100;46.884;17.410;2022-12-29T07:59:34;3.64;79.93
76291;DHT22;65100;46.884;17.410;2022-12-29T08:01:59;3.58;80.62
76291;DHT22;65100;46.884;17.410;2022-12-29T08:04:25;3.74;81.33
76291;DHT22;65100;46.884;17.410;2022-12-29T08:06:50;4.02;81.77
76291;DHT22;65100;46.884;17.410;2022-12-29T08:09:16;4.09;81.93
76291;DHT22;65100;46.884;17.410;2022-12-29T08:11:41;4.25;81.64
76291;DHT22;65100;46.884;17.410;2022-12-29T08:14:08;4.20;82.02
76291;DHT22;65100;46.884;17.410;2022-12-29T08:16:33;4.43;81.64
76291;DHT22;65100;46.884;17.410;2022-12-29T08:18:58;4.59;81.22
76291;DHT22;65100;46.884;17.410;2022-12-29T08:21:25;4.61;81.13
76291;DHT22;65100;46.884;17.410;2022-12-29T08:23:51;4.59;81.79
76291;DHT22;65100;46.884;17.410;2022-12-29T08:26:17;4.71;81.42
76291;DHT22;65100;46.884;17.410;2022-12-29T08:28:42;4.66;81.38
76291;DHT22;65100;46.884;17.410;2022-12-29T08:31:08;4.69;81.18
76291;DHT22;65100;46.884;17.410;2022-12-29T08:33:33;4.79;81.19
76291;DHT22;65100;46.884;17.410;2022-12-29T08:36:00;4.97;80.36
76291;DHT22;65100;46.884;17.410;2022-12-29T08:38:27;4.91;80.74
76291;DHT22;65100;46.884;17.410;2022-12-29T08:40:53;4.94;81.00
76291;DHT22;65100;46.884;17.410;2022-12-29T08:43:18;5.11;80.10
76291;DHT22;65100;46.884;17.410;2022-12-29T08:45:44;5.07;80.44
76291;DHT22;65100;46.884;17.410;2022-12-29T08:48:09;5.25;79.63
76291;DHT22;65100;46.884;17.410;2022-12-29T08:50:35;5.32;78.95
76291;DHT22;65100;46.884;17.410;2022-12-29T08:53:00;5.35;79.09
76291;DHT22;65100;46.884;17.410;2022-12-29T08:55:26;5.27;79.24
76291;DHT22;65100;46.884;17.410;2022-12-29T08:57:51;5.27;79.63
76291;DHT22;65100;46.884;17.410;2022-12-29T09:00:17;5.32;79.26
76291;DHT22;65100;46.884;17.410;2022-12-29T09:02:43;5.28;79.21
76291;DHT22;65100;46.884;17.410;2022-12-29T09:05:09;5.32;79.60
76291;DHT22;65100;46.884;17.410;2022-12-29T09:07:35;5.34;79.57
76291;DHT22;65100;46.884;17.410;2022-12-29T09:10:01;5.44;79.57
76291;DHT22;65100;46.884;17.410;2022-12-29T09:12:26;5.56;79.32
76291;DHT22;65100;46.884;17.410;2022-12-29T09:14:52;5.66;78.95
76291;DHT22;65100;46.884;17.410;2022-12-29T09:17:17;5.68;79.05
76291;DHT22;65100;46.884;17.410;2022-12-29T09:20:02;5.73;78.79
76291;DHT22;65100;46.884;17.410;2022-12-29T09:22:27;5.86;79.21
76291;DHT22;65100;46.884;17.410;2022-12-29T09:24:53;5.92;79.06
76291;DHT22;65100;46.884;17.410;2022-12-29T09:27:18;6.03;79.25
76291;DHT22;65100;46.884;17.410;2022-12-29T09:29:44;6.05;78.56
76291;DHT22;65100;46.884;17.410;2022-12-29T09:32:09;6.25;77.93
76291;DHT22;65100;46.884;17.410;2022-12-29T09:34:34;6.29;77.99
76291;DHT22;65100;46.884;17.410;2022-12-29T09:37:00;6.33;77.30
76291;DHT22;65100;46.884;17.410;2022-12-29T09:39:25;6.54;77.93
76291;DHT22;65100;46.884;17.410;2022-12-29T09:42:08;6.61;77.13
76291;DHT22;65100;46.884;17.410;2022-12-29T09:47:19;6.60;77.73
76291;DHT22;65100;46.884;17.410;2022-12-29T09:52:23;7.01;76.52
76291;DHT22;65100;46.884;17.410;2022-12-29T09:55:08;7.11;76.84
76291;DHT22;65100;46.884;17.410;2022-12-29T09:57:40;7.24;75.89
76291;DHT22;65100;46.884;17.410;2022-12-29T10:00:21;7.31;75.87
76291;DHT22;65100;46.884;17.410;2022-12-29T10:14:06;7.63;74.11
76291;DHT22;65100;46.884;17.410;2022-12-29T10:16:58;7.56;73.41
76291;DHT22;65100;46.884;17.410;2022-12-29T10:24:56;7.86;74.29
76291;DHT22;65100;46.884;17.410;2022-12-29T10:27:43;7.99;73.67
76291;DHT22;65100;46.884;17.410;2022-12-29T10:30:12;8.10;73.61
76291;DHT22;65100;46.884;17.410;2022-12-29T10:32:47;8.04;73.29
76291;DHT22;65100;46.884;17.410;2022-12-29T10:35:18;8.26;73.42
76291;DHT22;65100;46.884;17.410;2022-12-29T10:41:21;8.29;72.68
76291;DHT22;65100;46.884;17.410;2022-12-29T10:43:37;8.32;72.73
76291;DHT22;65100;46.884;17.410;2022-12-29T10:46:09;8.46;72.81
76291;DHT22;65100;46.884;17.410;2022-12-29T10:48:36;8.43;72.81
76291;DHT22;65100;46.884;17.410;2022-12-29T10:51:05;8.53;73.24
76291;DHT22;65100;46.884;17.410;2022-12-29T10:53:38;8.67;72.24
76291;DHT22;65100;46.884;17.410;2022-12-29T10:56:14;8.82;71.18
76291;DHT22;65100;46.884;17.410;2022-12-29T10:58:41;8.89;71.54
76291;DHT22;65100;46.884;17.410;2022-12-29T11:01:09;8.88;71.14
76291;DHT22;65100;46.884;17.410;2022-12-29T11:06:33;9.04;70.99
76291;DHT22;65100;46.884;17.410;2022-12-29T11:09:16;9.05;70.84
76291;DHT22;65100;46.884;17.410;2022-12-29T11:11:45;9.19;70.49
76291;DHT22;65100;46.884;17.410;2022-12-29T11:14:18;9.16;70.81
76291;DHT22;65100;46.884;17.410;2022-12-29T11:16:44;8.95;71.17
76291;DHT22;65100;46.884;17.410;2022-12-29T11:19:26;9.22;71.54
76291;DHT22;65100;46.884;17.410;2022-12-29T11:21:53;9.39;71.27
76291;DHT22;65100;46.884;17.410;2022-12-29T11:24:25;9.42;70.92
76291;DHT22;65100;46.884;17.410;2022-12-29T11:26:53;9.60;70.57
76291;DHT22;65100;46.884;17.410;2022-12-29T11:29:28;9.69;69.20
76291;DHT22;65100;46.884;17.410;2022-12-29T11:31:58;9.70;69.06
76291;DHT22;65100;46.884;17.410;2022-12-29T11:34:32;9.69;69.43
76291;DHT22;65100;46.884;17.410;2022-12-29T11:37:04;9.76;68.98
76291;DHT22;65100;46.884;17.410;2022-12-29T11:39:39;9.92;68.13
76291;DHT22;65100;46.884;17.410;2022-12-29T11:42:06;9.97;68.26
76291;DHT22;65100;46.884;17.410;2022-12-29T11:44:45;9.93;68.74
76291;DHT22;65100;46.884;17.410;2022-12-29T11:47:21;9.96;69.07
76291;DHT22;65100;46.884;17.410;2022-12-29T11:49:57;9.96;68.58
76291;DHT22;65100;46.884;17.410;2022-12-29T11:52:26;9.89;69.35
76291;DHT22;65100;46.884;17.410;2022-12-29T11:54:54;9.97;69.15
76291;DHT22;65100;46.884;17.410;2022-12-29T11:57:21;10.07;68.31
76291;DHT22;65100;46.884;17.410;2022-12-29T11:59:52;10.12;68.69
76291;DHT22;65100;46.884;17.410;2022-12-29T12:04:49;10.12;68.65
76291;DHT22;65100;46.884;17.410;2022-12-29T12:07:40;10.14;68.20
76291;DHT22;65100;46.884;17.410;2022-12-29T12:10:16;10.14;69.25
76291;DHT22;65100;46.884;17.410;2022-12-29T12:15:42;10.21;68.22
76291;DHT22;65100;46.884;17.410;2022-12-29T12:18:31;10.36;67.98
76291;DHT22;65100;46.884;17.410;2022-12-29T12:21:05;10.32;67.57
76291;DHT22;65100;46.884;17.410;2022-12-29T12:23:43;10.43;67.87
76291;DHT22;65100;46.884;17.410;2022-12-29T12:26:15;10.57;67.27
76291;DHT22;65100;46.884;17.410;2022-12-29T12:28:59;10.46;67.32
76291;DHT22;65100;46.884;17.410;2022-12-29T12:34:24;10.56;66.58
76291;DHT22;65100;46.884;17.410;2022-12-29T12:37:06;10.64;66.93
76291;DHT22;65100;46.884;17.410;2022-12-29T12:45:24;10.78;66.35
76291;DHT22;65100;46.884;17.410;2022-12-29T12:50:52;10.71;66.92
76291;DHT22;65100;46.884;17.410;2022-12-29T12:53:44;10.71;66.59
76291;DHT22;65100;46.884;17.410;2022-12-29T12:58:56;10.68;66.68
76291;DHT22;65100;46.884;17.410;2022-12-29T13:02:01;10.57;67.05
76291;DHT22;65100;46.884;17.410;2022-12-29T13:04:46;10.50;67.00
76291;DHT22;65100;46.884;17.410;2022-12-29T13:13:52;10.64;67.25
76291;DHT22;65100;46.884;17.410;2022-12-29T13:30:22;10.81;67.01
76291;DHT22;65100;46.884;17.410;2022-12-29T13:36:10;10.82;66.90
76291;DHT22;65100;46.884;17.410;2022-12-29T13:38:42;10.74;67.13
76291;DHT22;65100;46.884;17.410;2022-12-29T13:41:27;10.75;67.32
76291;DHT22;65100;46.884;17.410;2022-12-29T13:43:54;10.70;67.51
76291;DHT22;65100;46.884;17.410;2022-12-29T13:46:28;10.65;67.98
76291;DHT22;65100;46.884;17.410;2022-12-29T13:48:58;10.60;67.89
76291;DHT22;65100;46.884;17.410;2022-12-29T13:51:26;10.67;67.59
76291;DHT22;65100;46.884;17.410;2022-12-29T13:54:12;10.64;67.85
76291;DHT22;65100;46.884;17.410;2022-12-29T13:56:41;10.60;68.17
76291;DHT22;65100;46.884;17.410;2022-12-29T13:59:34;10.64;68.36
76291;DHT22;65100;46.884;17.410;2022-12-29T14:02:15;10.54;68.55
76291;DHT22;65100;46.884;17.410;2022-12-29T14:07:43;10.36;69.17
76291;DHT22;65100;46.884;17.410;2022-12-29T14:10:36;10.43;68.81
76291;DHT22;65100;46.884;17.410;2022-12-29T14:13:12;10.34;69.08
76291;DHT22;65100;46.884;17.410;2022-12-29T14:15:39;10.30;69.23
76291;DHT22;65100;46.884;17.410;2022-12-29T14:20:50;10.14;69.97
76291;DHT22;65100;46.884;17.410;2022-12-29T14:23:27;10.10;70.03
76291;DHT22;65100;46.884;17.410;2022-12-29T14:28:41;10.12;69.59
76291;DHT22;65100;46.884;17.410;2022-12-29T14:33:39;9.93;70.17
76291;DHT22;65100;46.884;17.410;2022-12-29T14:36:22;9.86;69.88
76291;DHT22;65100;46.884;17.410;2022-12-29T14:38:49;9.72;69.24
76291;DHT22;65100;46.884;17.410;2022-12-29T14:43:56;9.31;70.90
76291;DHT22;65100;46.884;17.410;2022-12-29T14:46:22;9.07;70.90
76291;DHT22;65100;46.884;17.410;2022-12-29T14:48:55;8.80;71.94
76291;DHT22;65100;46.884;17.410;2022-12-29T14:51:41;8.70;72.33
76291;DHT22;65100;46.884;17.410;2022-12-29T14:56:58;8.60;72.50
76291;DHT22;65100;46.884;17.410;2022-12-29T14:59:24;8.50;72.84
76291;DHT22;65100;46.884;17.410;2022-12-29T15:01:53;8.37;73.11
76291;DHT22;65100;46.884;17.410;2022-12-29T15:04:30;8.26;73.39
76291;DHT22;65100;46.884;17.410;2022-12-29T15:06:56;8.14;73.34
76291;DHT22;65100;46.884;17.410;2022-12-29T15:10:26;8.04;73.71
76291;DHT22;65100;46.884;17.410;2022-12-29T15:12:37;7.94;74.04
76291;DHT22;65100;46.884;17.410;2022-12-29T15:15:26;7.82;73.59
76291;DHT22;65100;46.884;17.410;2022-12-29T15:17:52;7.69;74.10
76291;DHT22;65100;46.884;17.410;2022-12-29T15:20:27;7.58;74.01
76291;DHT22;65100;46.884;17.410;2022-12-29T15:23:00;7.32;75.40
76291;DHT22;65100;46.884;17.410;2022-12-29T15:25:27;7.21;76.10
76291;DHT22;65100;46.884;17.410;2022-12-29T15:28:00;6.94;77.11
76291;DHT22;65100;46.884;17.410;2022-12-29T15:30:26;6.90;77.04
76291;DHT22;65100;46.884;17.410;2022-12-29T15:32:51;6.83;77.18
76291;DHT22;65100;46.884;17.410;2022-12-29T15:35:37;6.80;77.05
76291;DHT22;65100;46.884;17.410;2022-12-29T15:38:35;6.87;75.79
76291;DHT22;65100;46.884;17.410;2022-12-29T15:41:05;6.74;75.23
76291;DHT22;65100;46.884;17.410;2022-12-29T15:46:21;5.98;79.03
76291;DHT22;65100;46.884;17.410;2022-12-29T15:48:47;6.17;78.03
76291;DHT22;65100;46.884;17.410;2022-12-29T15:51:19;6.13;78.33
76291;DHT22;65100;46.884;17.410;2022-12-29T15:53:50;6.05;78.14
76291;DHT22;65100;46.884;17.410;2022-12-29T15:56:17;6.12;77.56
76291;DHT22;65100;46.884;17.410;2022-12-29T15:58:46;6.02;76.89
76291;DHT22;65100;46.884;17.410;2022-12-29T16:03:52;5.75;76.82
76291;DHT22;65100;46.884;17.410;2022-12-29T16:06:33;5.62;78.21
76291;DHT22;65100;46.884;17.410;2022-12-29T16:09:18;5.32;78.45
76291;DHT22;65100;46.884;17.410;2022-12-29T16:11:53;5.37;77.45
76291;DHT22;65100;46.884;17.410;2022-12-29T16:14:46;5.03;78.08
76291;DHT22;65100;46.884;17.410;2022-12-29T16:17:15;4.91;78.68
76291;DHT22;65100;46.884;17.410;2022-12-29T16:19:49;4.56;80.14
76291;DHT22;65100;46.884;17.410;2022-12-29T16:22:26;4.61;80.96
76291;DHT22;65100;46.884;17.410;2022-12-29T16:24:55;4.63;78.11
76291;DHT22;65100;46.884;17.410;2022-12-29T16:27:28;4.60;79.86
76291;DHT22;65100;46.884;17.410;2022-12-29T16:29:56;4.56;80.18
76291;DHT22;65100;46.884;17.410;2022-12-29T16:32:27;4.49;79.29
76291;DHT22;65100;46.884;17.410;2022-12-29T16:35:10;4.42;79.36
76291;DHT22;65100;46.884;17.410;2022-12-29T16:37:37;4.37;80.47
76291;DHT22;65100;46.884;17.410;2022-12-29T16:42:48;4.30;79.18
76291;DHT22;65100;46.884;17.410;2022-12-29T16:50:36;4.10;80.73
76291;DHT22;65100;46.884;17.410;2022-12-29T16:53:03;4.07;80.99
76291;DHT22;65100;46.884;17.410;2022-12-29T16:55:30;4.13;80.81
76291;DHT22;65100;46.884;17.410;2022-12-29T16:57:57;4.06;81.12
76291;DHT22;65100;46.884;17.410;2022-12-29T17:00:26;3.94;79.22
76291;DHT22;65100;46.884;17.410;2022-12-29T17:02:57;3.74;80.94
76291;DHT22;65100;46.884;17.410;2022-12-29T17:05:23;3.68;80.47
76291;DHT22;65100;46.884;17.410;2022-12-29T17:07:49;3.64;79.23
76291;DHT22;65100;46.884;17.410;2022-12-29T17:10:16;3.55;79.32
76291;DHT22;65100;46.884;17.410;2022-12-29T17:12:43;3.44;80.12
76291;DHT22;65100;46.884;17.410;2022-12-29T17:15:21;3.44;81.09
76291;DHT22;65100;46.884;17.410;2022-12-29T17:17:49;3.45;80.31
76291;DHT22;65100;46.884;17.410;2022-12-29T17:20:27;3.48;80.68
76291;DHT22;65100;46.884;17.410;2022-12-29T17:22:54;3.42;80.75
76291;DHT22;65100;46.884;17.410;2022-12-29T17:25:32;3.38;81.57
76291;DHT22;65100;46.884;17.410;2022-12-29T17:28:00;3.38;81.72
76291;DHT22;65100;46.884;17.410;2022-12-29T17:30:28;3.28;82.24
76291;DHT22;65100;46.884;17.410;2022-12-29T17:33:02;3.54;86.82
76291;DHT22;65100;46.884;17.410;2022-12-29T17:35:28;3.62;83.79
76291;DHT22;65100;46.884;17.410;2022-12-29T17:37:53;3.70;80.93
76291;DHT22;65100;46.884;17.410;2022-12-29T17:40:21;3.61;79.55
76291;DHT22;65100;46.884;17.410;2022-12-29T17:42:51;3.45;80.38
76291;DHT22;65100;46.884;17.410;2022-12-29T17:45:20;3.37;79.59
76291;DHT22;65100;46.884;17.410;2022-12-29T17:47:46;3.26;80.14
76291;DHT22;65100;46.884;17.410;2022-12-29T17:50:14;3.13;79.80
76291;DHT22;65100;46.884;17.410;2022-12-29T17:52:40;2.99;80.13
76291;DHT22;65100;46.884;17.410;2022-12-29T17:55:14;2.82;80.68
76291;DHT22;65100;46.884;17.410;2022-12-29T17:57:39;2.92;82.01
76291;DHT22;65100;46.884;17.410;2022-12-29T18:00:05;3.00;83.45
76291;DHT22;65100;46.884;17.410;2022-12-29T18:02:32;3.08;81.69
76291;DHT22;65100;46.884;17.410;2022-12-29T18:04:58;3.07;80.97
76291;DHT22;65100;46.884;17.410;2022-12-29T18:07:28;2.99;80.07
76291;DHT22;65100;46.884;17.410;2022-12-29T18:09:54;2.89;80.34
76291;DHT22;65100;46.884;17.410;2022-12-29T18:15:02;2.59;80.04